Time;durP1;ratioP1;P1;durP2;ratioP2;P2;SDS_P1;SDS_P2;PMS_P1;PMS_P2;Temp;Humidity;BMP_temperature;BMP_pressure;BME280_temperature;BME280_humidity;BME280_pressure;Samples;Min_cycle;Max_cycle;Signal;HPM_P1;HPM_P2
2023/04/02 00:01:25;;;;;;;13.63;6.47;;;4.40;99.90;;;;;;6122495;23;20021;-79
2023/04/02 00:03:58;;;;;;;13.98;6.68;;;4.40;99.90;;;;;;6121691;23;20014;-79
2023/04/02 00:06:31;;;;;;;12.20;5.88;;;4.50;99.90;;;;;;6121937;23;20445;-79
2023/04/02 00:09:16;;;;;;;10.27;5.43;;;4.40;99.90;;;;;;6124275;23;20275;-80
2023/04/02 00:11:54;;;;;;;10.60;6.15;;;4.40;99.90;;;;;;6097712;23;20018;-80
2023/04/02 00:14:28;;;;;;;9.05;5.38;;;4.40;99.90;;;;;;6122262;23;20060;-79
2023/04/02 00:16:55;;;;;;;11.82;5.32;;;4.40;99.90;;;;;;6122891;23;20018;-80
2023/04/02 00:19:30;;;;;;;10.85;5.05;;;4.30;99.90;;;;;;6123562;23;20256;-80
2023/04/02 00:21:57;;;;;;;11.98;4.90;;;4.30;99.90;;;;;;6122380;23;20092;-80
2023/04/02 00:24:23;;;;;;;11.13;5.25;;;4.20;99.90;;;;;;6121872;23;20457;-80
2023/04/02 00:26:51;;;;;;;8.40;5.18;;;4.20;99.90;;;;;;6097577;23;20025;-80
2023/04/02 00:29:17;;;;;;;8.80;5.03;;;4.20;99.90;;;;;;6097809;23;20037;-79
2023/04/02 00:31:51;;;;;;;8.77;5.28;;;4.10;99.90;;;;;;6121441;23;20009;-79
2023/04/02 00:34:33;;;;;;;11.38;5.55;;;4.00;99.90;;;;;;6098118;23;20273;-79
2023/04/02 00:37:00;;;;;;;8.43;4.82;;;4.00;99.90;;;;;;6097926;23;20021;-79
2023/04/02 00:39:29;;;;;;;11.60;5.32;;;3.90;99.90;;;;;;6124244;23;20023;-80
2023/04/02 00:42:06;;;;;;;9.40;5.05;;;3.80;99.90;;;;;;6098016;23;20014;-80
2023/04/02 00:44:36;;;;;;;7.88;5.53;;;3.70;99.90;;;;;;6097912;23;20018;-79
2023/04/02 00:47:15;;;;;;;10.93;5.50;;;3.60;99.90;;;;;;6122108;23;20093;-79
2023/04/02 00:49:42;;;;;;;13.13;4.97;;;3.50;99.90;;;;;;6125785;23;20101;-79
2023/04/02 00:52:15;;;;;;;10.88;5.20;;;3.40;99.90;;;;;;6123892;23;20036;-80
2023/04/02 00:54:52;;;;;;;11.52;6.00;;;3.40;99.90;;;;;;6123833;23;20010;-79
2023/04/02 00:57:24;;;;;;;8.95;5.20;;;3.30;99.90;;;;;;6124209;23;20016;-80
2023/04/02 01:00:11;;;;;;;10.13;5.20;;;3.20;99.90;;;;;;6123286;23;20289;-79
2023/04/02 01:02:39;;;;;;;9.63;5.32;;;3.20;99.90;;;;;;6125334;23;20064;-79
2023/04/02 01:05:14;;;;;;;10.27;4.97;;;3.20;99.90;;;;;;6125560;23;20062;-79
2023/04/02 01:08:00;;;;;;;11.02;6.05;;;3.10;99.90;;;;;;6123747;23;20441;-80
2023/04/02 01:10:38;;;;;;;9.57;5.68;;;3.00;99.90;;;;;;6125199;23;20021;-80
2023/04/02 01:13:30;;;;;;;9.50;5.50;;;2.90;99.90;;;;;;6125932;23;20342;-80
2023/04/02 01:16:07;;;;;;;11.10;5.43;;;2.90;99.90;;;;;;6122888;23;20095;-79
2023/04/02 01:19:02;;;;;;;8.80;5.28;;;2.90;99.90;;;;;;6123640;23;20041;-80
2023/04/02 01:21:35;;;;;;;11.77;5.85;;;2.80;99.90;;;;;;6123696;23;20021;-80
2023/04/02 01:24:04;;;;;;;7.95;4.95;;;2.80;99.90;;;;;;6123781;23;20316;-80
2023/04/02 01:26:39;;;;;;;10.60;5.50;;;2.70;99.90;;;;;;6123584;23;20014;-79
2023/04/02 01:29:13;;;;;;;12.50;5.50;;;2.70;99.90;;;;;;6098440;23;20052;-79
2023/04/02 01:31:39;;;;;;;;;;;2.60;99.90;;;;;;6123980;23;20010;-79
2023/04/02 01:34:08;;;;;;;12.18;5.38;;;3.20;99.90;;;;;;6123870;23;19913;-79
2023/04/02 01:36:55;;;;;;;11.25;5.25;;;2.60;99.90;;;;;;6125578;23;20073;-80
2023/04/02 01:39:45;;;;;;;8.48;5.30;;;2.50;99.90;;;;;;6099378;23;20018;-79
2023/04/02 01:42:35;;;;;;;11.60;5.43;;;2.50;99.90;;;;;;6123502;23;20077;-79
2023/04/02 01:45:13;;;;;;;10.15;5.50;;;2.40;99.90;;;;;;6122577;23;20045;-80
2023/04/02 01:47:40;;;;;;;10.65;5.28;;;2.40;99.90;;;;;;6123507;23;20018;-80
2023/04/02 01:50:42;;;;;;;10.50;5.07;;;2.40;99.90;;;;;;6123591;23;20342;-80
2023/04/02 01:53:13;;;;;;;10.50;5.25;;;2.40;99.90;;;;;;6007256;23;20124;-80
2023/04/02 01:56:07;;;;;;;10.55;5.13;;;2.40;99.90;;;;;;5983871;23;20020;-80
2023/04/02 01:58:33;;;;;;;;;;;2.40;99.90;;;;;;6001339;23;20016;-80
2023/04/02 02:01:05;;;;;;;11.30;4.97;;;2.30;99.90;;;;;;5960279;23;19954;-80
2023/04/02 02:03:32;;;;;;;8.25;4.57;;;2.30;99.90;;;;;;5983793;23;20027;-79
2023/04/02 02:06:01;;;;;;;11.23;5.20;;;2.40;99.90;;;;;;5960687;23;20023;-79
2023/04/02 02:08:37;;;;;;;7.97;4.18;;;2.20;99.90;;;;;;5983456;23;20012;-79
2023/04/02 02:11:04;;;;;;;9.00;4.97;;;2.20;99.90;;;;;;5983692;23;20034;-79
2023/04/02 02:13:31;;;;;;;9.38;4.40;;;2.10;99.90;;;;;;5982951;23;20043;-80
2023/04/02 02:16:00;;;;;;;9.85;4.30;;;2.10;99.90;;;;;;5959995;23;20015;-79
2023/04/02 02:18:27;;;;;;;8.07;4.20;;;2.10;99.90;;;;;;5960169;23;20308;-79
2023/04/02 02:20:55;;;;;;;8.70;4.40;;;2.10;99.90;;;;;;5983261;23;20020;-79
2023/04/02 02:23:22;;;;;;;7.35;3.90;;;2.10;99.90;;;;;;5983470;23;20015;-79
2023/04/02 02:25:47;;;;;;;8.70;4.20;;;2.00;99.90;;;;;;5983249;23;20020;-79
2023/04/02 02:28:26;;;;;;;10.00;4.20;;;2.50;99.90;;;;;;6095032;23;20464;-79
2023/04/02 02:31:04;;;;;;;9.98;4.82;;;2.00;99.90;;;;;;6099004;23;20025;-79
2023/04/02 02:33:49;;;;;;;16.25;4.63;;;1.90;99.90;;;;;;6123490;23;20330;-80
2023/04/02 02:36:26;;;;;;;9.55;4.22;;;1.90;99.90;;;;;;6123051;23;20456;-79
2023/04/02 02:39:22;;;;;;;10.45;4.53;;;1.90;99.90;;;;;;6123522;23;20006;-80
2023/04/02 02:42:15;;;;;;;10.38;3.60;;;1.90;99.90;;;;;;6122983;23;20398;-79
2023/04/02 02:44:45;;;;;;;8.98;3.42;;;1.80;99.90;;;;;;6123366;23;20021;-80
2023/04/02 02:47:15;;;;;;;11.20;3.50;;;1.80;99.90;;;;;;6122621;23;20441;-79
2023/04/02 02:49:49;;;;;;;6.50;3.70;;;1.80;99.90;;;;;;6124706;23;20021;-80
2023/04/02 02:52:23;;;;;;;9.57;4.07;;;1.90;99.90;;;;;;6122935;23;20111;-79
2023/04/02 02:54:53;;;;;;;7.35;3.47;;;1.70;99.90;;;;;;6122996;23;20021;-79
2023/04/02 02:57:25;;;;;;;7.80;3.35;;;1.70;99.90;;;;;;6097662;23;20018;-79
2023/04/02 02:59:51;;;;;;;7.88;3.63;;;1.70;99.90;;;;;;6122663;23;20457;-80
2023/04/02 03:02:18;;;;;;;8.00;3.55;;;1.70;99.90;;;;;;6098267;23;20018;-80
2023/04/02 03:04:52;;;;;;;7.78;3.08;;;1.60;99.90;;;;;;6098253;23;20014;-79
2023/04/02 03:07:20;;;;;;;8.55;3.55;;;1.70;99.90;;;;;;6122984;23;20018;-79
2023/04/02 03:09:57;;;;;;;13.15;3.88;;;1.60;99.90;;;;;;6122845;23;20317;-79
2023/04/02 03:12:59;;;;;;;8.95;3.60;;;1.60;99.90;;;;;;6122323;23;20089;-79
2023/04/02 03:15:37;;;;;;;9.25;3.55;;;1.50;99.90;;;;;;6122567;23;20064;-80
2023/04/02 03:18:24;;;;;;;7.75;3.28;;;1.50;99.90;;;;;;6098333;23;20015;-80
2023/04/02 03:20:59;;;;;;;7.07;3.17;;;1.50;99.90;;;;;;6123056;23;20093;-80
2023/04/02 03:23:41;;;;;;;9.20;3.35;;;1.50;99.90;;;;;;6097982;23;20013;-79
2023/04/02 03:26:17;;;;;;;12.82;3.55;;;1.50;99.90;;;;;;6097606;23;20045;-80
2023/04/02 03:28:52;;;;;;;7.38;2.80;;;1.50;99.90;;;;;;6098111;23;20014;-79
2023/04/02 03:31:37;;;;;;;8.00;2.80;;;1.50;99.90;;;;;;6122343;23;20010;-80
2023/04/02 03:34:17;;;;;;;6.97;3.03;;;1.40;99.90;;;;;;6122405;23;20018;-79
2023/04/02 03:37:09;;;;;;;8.18;2.80;;;1.40;99.90;;;;;;6122386;23;20023;-79
2023/04/02 03:39:41;;;;;;;7.90;3.08;;;1.40;99.90;;;;;;6121389;23;20017;-80
2023/04/02 03:42:24;;;;;;;8.52;3.42;;;1.40;99.90;;;;;;6122478;23;20014;-79
2023/04/02 03:44:55;;;;;;;9.02;3.10;;;1.30;99.90;;;;;;6122693;23;20088;-79
2023/04/02 03:47:36;;;;;;;7.85;3.35;;;1.30;99.90;;;;;;6122038;23;20116;-80
2023/04/02 03:50:10;;;;;;;9.98;2.83;;;1.30;99.90;;;;;;6122270;23;20507;-79
2023/04/02 03:52:37;;;;;;;8.40;2.80;;;1.20;99.90;;;;;;6097477;23;20018;-79
2023/04/02 03:55:30;;;;;;;6.97;2.70;;;1.20;99.90;;;;;;6097204;23;20021;-79
2023/04/02 03:58:15;;;;;;;7.45;2.75;;;1.20;99.90;;;;;;6097629;23;20018;-79
2023/04/02 04:01:06;;;;;;;9.65;3.33;;;1.20;99.90;;;;;;6124307;23;20020;-80
2023/04/02 04:03:35;;;;;;;8.90;3.00;;;1.20;99.90;;;;;;6097887;23;20024;-79
2023/04/02 04:06:05;;;;;;;6.05;3.00;;;1.20;99.90;;;;;;6121899;23;20315;-79
2023/04/02 04:08:45;;;;;;;7.72;2.92;;;1.20;99.90;;;;;;6122094;23;20392;-79
2023/04/02 04:11:18;;;;;;;7.60;3.20;;;1.40;99.90;;;;;;6098002;23;20038;-79
2023/04/02 04:14:13;;;;;;;11.15;3.47;;;1.10;99.90;;;;;;6126041;23;20025;-79
2023/04/02 04:17:03;;;;;;;10.85;4.40;;;1.10;99.90;;;;;;6103571;23;20018;-79
2023/04/02 04:19:37;;;;;;;16.65;6.32;;;1.10;99.90;;;;;;6103017;23;20014;-79
2023/04/02 04:22:32;;;;;;;16.98;9.00;;;1.00;99.90;;;;;;6127941;23;20018;-80
2023/04/02 04:25:04;;;;;;;31.60;17.65;;;1.00;99.90;;;;;;6100020;23;20073;-79
2023/04/02 04:27:44;;;;;;;16.90;9.02;;;1.10;99.90;;;;;;6125305;23;20081;-79
2023/04/02 04:30:33;;;;;;;14.13;5.75;;;1.00;99.90;;;;;;6125037;23;20010;-79
2023/04/02 04:33:09;;;;;;;13.23;5.50;;;1.00;99.90;;;;;;6124894;23;20017;-80
2023/04/02 04:35:48;;;;;;;17.58;10.75;;;1.00;99.90;;;;;;6100112;23;20022;-80
2023/04/02 04:38:26;;;;;;;15.18;8.32;;;0.90;99.90;;;;;;6123744;23;20018;-78
2023/04/02 04:40:57;;;;;;;11.32;6.05;;;1.00;99.90;;;;;;6099830;23;20029;-80
2023/04/02 04:43:53;;;;;;;10.80;4.10;;;1.00;99.90;;;;;;6126079;23;20349;-79
2023/04/02 04:46:40;;;;;;;8.95;3.10;;;1.00;99.90;;;;;;6123917;23;20077;-80
2023/04/02 04:49:24;;;;;;;13.82;7.53;;;1.00;99.90;;;;;;6124153;23;20021;-79
2023/04/02 04:51:58;;;;;;;9.95;6.15;;;1.00;99.90;;;;;;6126407;23;20014;-79
2023/04/02 04:54:26;;;;;;;12.38;5.80;;;0.90;99.90;;;;;;6104435;23;20051;-80
2023/04/02 04:56:59;;;;;;;6.78;3.22;;;0.90;99.90;;;;;;6104283;23;20064;-80
2023/04/02 04:59:28;;;;;;;;;;;0.90;99.90;;;;;;6105024;23;20024;-80
2023/04/02 05:02:06;;;;;;;12.85;4.82;;;0.90;99.90;;;;;;6128319;23;19987;-79
2023/04/02 05:04:41;;;;;;;11.50;6.50;;;0.90;99.90;;;;;;6104139;23;20018;-80
2023/04/02 05:07:15;;;;;;;15.50;7.00;;;0.90;99.90;;;;;;6127984;23;20009;-79
2023/04/02 05:09:52;;;;;;;12.45;7.22;;;1.00;99.90;;;;;;6128182;23;20055;-80
2023/04/02 05:12:38;;;;;;;10.73;5.80;;;1.00;99.90;;;;;;6104137;23;20033;-80
2023/04/02 05:15:22;;;;;;;8.68;3.95;;;1.00;99.90;;;;;;6128781;23;20010;-80
2023/04/02 05:18:00;;;;;;;11.07;5.25;;;0.90;99.90;;;;;;6104090;23;20316;-79
2023/04/02 05:20:31;;;;;;;9.70;3.28;;;1.00;99.90;;;;;;6154657;23;20077;-80
2023/04/02 05:23:18;;;;;;;10.50;3.78;;;1.00;99.90;;;;;;6154400;23;20072;-80
2023/04/02 05:26:20;;;;;;;13.38;6.35;;;1.00;99.90;;;;;;6154741;23;20009;-80
2023/04/02 05:28:50;;;;;;;9.75;4.10;;;1.00;99.90;;;;;;6104277;23;20014;-80
2023/04/02 05:31:41;;;;;;;10.52;4.90;;;1.10;99.90;;;;;;6154847;23;20356;-80
2023/04/02 05:34:07;;;;;;;11.00;5.13;;;1.10;99.90;;;;;;6128760;23;20350;-80
2023/04/02 05:36:34;;;;;;;8.63;4.30;;;1.10;99.90;;;;;;6127816;23;20076;-79
2023/04/02 05:39:00;;;;;;;9.18;4.13;;;1.10;99.90;;;;;;6104146;23;20018;-79
2023/04/02 05:41:39;;;;;;;13.77;4.20;;;1.20;99.90;;;;;;6128641;23;20025;-80
2023/04/02 05:44:26;;;;;;;11.32;5.32;;;1.20;99.90;;;;;;6104110;23;20025;-80
2023/04/02 05:47:00;;;;;;;8.70;3.97;;;1.20;99.90;;;;;;6128050;23;20017;-79
2023/04/02 05:49:41;;;;;;;8.80;3.17;;;1.20;99.90;;;;;;6154277;23;20014;-80
2023/04/02 05:52:13;;;;;;;7.03;2.75;;;1.30;99.90;;;;;;6098701;23;20016;-80
2023/04/02 05:54:52;;;;;;;11.25;3.13;;;1.30;99.90;;;;;;6122853;23;20022;-80
2023/04/02 05:57:24;;;;;;;7.38;2.72;;;1.30;99.90;;;;;;6125128;23;20018;-80
2023/04/02 05:59:56;;;;;;;8.65;3.72;;;1.30;99.90;;;;;;6123351;23;20014;-80
2023/04/02 06:02:52;;;;;;;15.27;6.85;;;1.40;99.90;;;;;;6123172;23;20097;-80
2023/04/02 06:05:24;;;;;;;10.82;3.22;;;1.40;99.90;;;;;;6119213;23;20018;-80
2023/04/02 06:08:09;;;;;;;10.43;3.63;;;1.50;99.90;;;;;;6123152;23;20025;-80
2023/04/02 06:10:48;;;;;;;11.98;3.67;;;1.50;99.90;;;;;;6098353;23;20014;-81
2023/04/02 06:13:19;;;;;;;8.70;3.80;;;1.50;99.90;;;;;;6123463;23;20013;-79
2023/04/02 06:15:46;;;;;;;9.55;3.42;;;1.60;99.90;;;;;;6098417;23;20018;-79
2023/04/02 06:18:26;;;;;;;10.95;3.65;;;1.60;99.90;;;;;;6124745;23;20089;-80
2023/04/02 06:20:52;;;;;;;13.52;7.88;;;1.80;99.90;;;;;;6122175;23;20017;-80
2023/04/02 06:23:32;;;;;;;10.10;5.07;;;2.00;99.90;;;;;;6123130;23;20080;-80
2023/04/02 06:26:04;;;;;;;5.32;3.10;;;2.30;99.90;;;;;;6122580;23;20010;-81
2023/04/02 06:28:41;;;;;;;10.00;3.78;;;3.20;99.90;;;;;;6098659;23;20093;-80
2023/04/02 06:31:14;;;;;;;13.00;4.40;;;4.20;99.90;;;;;;6098099;23;20021;-80
2023/04/02 06:33:41;;;;;;;8.20;3.95;;;4.70;99.90;;;;;;6122013;23;20033;-80
2023/04/02 06:36:08;;;;;;;15.15;5.00;;;5.10;99.90;;;;;;6122973;23;20021;-80
2023/04/02 06:38:36;;;;;;;14.05;7.32;;;5.50;99.90;;;;;;6122478;23;20097;-79
2023/04/02 06:41:11;;;;;;;11.88;5.28;;;4.60;99.90;;;;;;6122701;23;20374;-80
2023/04/02 06:43:43;;;;;;;11.00;3.40;;;4.50;99.90;;;;;;6124842;23;20020;-80
2023/04/02 06:46:19;;;;;;;8.60;4.85;;;4.30;99.90;;;;;;6098266;23;20010;-79
2023/04/02 06:48:51;;;;;;;9.20;3.83;;;4.30;99.90;;;;;;6122004;23;20014;-79
2023/04/02 06:51:21;;;;;;;8.88;4.97;;;4.10;99.90;;;;;;6098297;23;20100;-79
2023/04/02 06:53:48;;;;;;;7.78;2.40;;;4.20;99.90;;;;;;6097908;23;20041;-79
2023/04/02 06:56:46;;;;;;;7.00;3.17;;;4.00;99.90;;;;;;6098074;23;20022;-79
2023/04/02 06:59:13;;;;;;;6.88;2.60;;;3.90;99.90;;;;;;6124526;23;20049;-79
2023/04/02 07:01:47;;;;;;;7.70;2.92;;;3.80;99.90;;;;;;6098345;23;20024;-79
2023/04/02 07:04:13;;;;;;;7.20;2.50;;;3.90;99.90;;;;;;6098181;23;20010;-79
2023/04/02 07:06:39;;;;;;;8.85;3.38;;;3.90;99.90;;;;;;6122764;23;20037;-79
2023/04/02 07:09:05;;;;;;;8.07;2.50;;;4.00;99.90;;;;;;6098256;23;20361;-79
2023/04/02 07:11:31;;;;;;;6.88;1.85;;;4.10;99.90;;;;;;6124779;23;20025;-79
2023/04/02 07:13:57;;;;;;;5.80;2.25;;;4.20;99.90;;;;;;6098391;23;20014;-78
2023/04/02 07:16:25;;;;;;;7.95;2.63;;;4.90;99.90;;;;;;6122683;23;20014;-79
2023/04/02 07:18:51;;;;;;;8.68;2.10;;;4.30;99.90;;;;;;6123956;23;20013;-79
2023/04/02 07:21:17;;;;;;;7.45;2.40;;;4.20;99.90;;;;;;6098230;23;20010;-79
2023/04/02 07:23:46;;;;;;;9.18;2.67;;;4.10;99.90;;;;;;6122715;23;20113;-79
2023/04/02 07:26:17;;;;;;;6.28;2.53;;;4.20;99.90;;;;;;6122886;23;20092;-79
2023/04/02 07:28:46;;;;;;;8.77;2.17;;;4.20;99.90;;;;;;6098339;23;20041;-78
2023/04/02 07:31:18;;;;;;;7.68;2.35;;;4.20;99.90;;;;;;6121843;23;20319;-79
2023/04/02 07:33:44;;;;;;;9.43;2.03;;;4.20;99.90;;;;;;6097804;23;20097;-79
2023/04/02 07:36:15;;;;;;;7.35;2.33;;;4.30;99.90;;;;;;6097764;23;20061;-79
2023/04/02 07:38:41;;;;;;;6.72;2.20;;;4.70;99.90;;;;;;6097896;23;20510;-79
2023/04/02 07:41:07;;;;;;;6.57;2.10;;;4.30;99.90;;;;;;6097777;23;20130;-79
2023/04/02 07:43:34;;;;;;;8.23;2.15;;;4.30;99.90;;;;;;6122349;23;20021;-78
2023/04/02 07:46:00;;;;;;;11.43;2.42;;;4.30;99.90;;;;;;6097029;23;20072;-79
2023/04/02 07:48:26;;;;;;;5.97;2.40;;;4.30;99.90;;;;;;6122070;23;20010;-79
2023/04/02 07:50:52;;;;;;;6.95;2.53;;;4.40;99.90;;;;;;6097440;23;20016;-79
2023/04/02 07:53:36;;;;;;;5.30;2.47;;;4.40;99.90;;;;;;6097179;23;20389;-79
2023/04/02 07:56:03;;;;;;;7.90;2.50;;;4.40;99.90;;;;;;6097177;23;20018;-79
2023/04/02 07:58:31;;;;;;;6.78;2.95;;;4.40;99.90;;;;;;6097737;23;20017;-79
2023/04/02 08:00:57;;;;;;;8.95;2.75;;;4.60;99.90;;;;;;6121535;23;20021;-80
2023/04/02 08:03:23;;;;;;;7.10;2.45;;;4.70;99.90;;;;;;6122413;23;20017;-79
2023/04/02 08:05:53;;;;;;;6.70;2.03;;;4.70;99.90;;;;;;6097313;23;20042;-79
2023/04/02 08:08:20;;;;;;;6.18;2.15;;;4.50;99.90;;;;;;6097447;23;20006;-79
2023/04/02 08:10:49;;;;;;;7.38;2.70;;;4.60;99.90;;;;;;6122026;23;20014;-79
2023/04/02 08:13:17;;;;;;;9.70;2.40;;;4.60;99.90;;;;;;6122386;23;20238;-80
2023/04/02 08:15:45;;;;;;;8.48;2.40;;;4.60;99.90;;;;;;6123590;23;20013;-79
2023/04/02 08:18:15;;;;;;;10.80;2.50;;;4.70;99.90;;;;;;6122295;23;20065;-79
2023/04/02 08:20:41;;;;;;;7.90;2.40;;;4.60;99.90;;;;;;6122179;23;20337;-80
2023/04/02 08:23:14;;;;;;;6.80;2.20;;;4.70;99.90;;;;;;6097729;23;20014;-79
2023/04/02 08:25:40;;;;;;;5.97;2.13;;;4.80;99.90;;;;;;6097739;23;20018;-79
2023/04/02 08:28:05;;;;;;;5.78;2.20;;;4.80;99.90;;;;;;6123926;23;20223;-80
2023/04/02 08:30:31;;;;;;;4.93;2.20;;;4.80;99.90;;;;;;6121466;23;20084;-79
2023/04/02 08:32:57;;;;;;;5.03;2.05;;;4.80;99.90;;;;;;6122268;23;20079;-79
2023/04/02 08:35:22;;;;;;;8.75;2.53;;;4.80;99.90;;;;;;6097687;23;20097;-79
2023/04/02 08:37:48;;;;;;;5.43;2.17;;;4.70;99.90;;;;;;6097422;23;20026;-79
2023/04/02 08:40:25;;;;;;;8.25;2.60;;;4.80;99.90;;;;;;6123979;23;20022;-80
2023/04/02 08:43:29;;;;;;;8.63;2.95;;;4.80;99.90;;;;;;6098433;23;20056;-79
2023/04/02 08:46:15;;;;;;;5.22;2.00;;;4.90;99.90;;;;;;6121630;23;20127;-79
2023/04/02 08:48:46;;;;;;;8.15;4.28;;;5.00;99.90;;;;;;6123098;23;20009;-79
2023/04/02 08:51:34;;;;;;;9.30;2.53;;;5.00;99.90;;;;;;6124238;23;20006;-79
2023/04/02 08:54:33;;;;;;;5.22;2.17;;;5.30;99.90;;;;;;6122693;23;20036;-79
2023/04/02 08:57:13;;;;;;;7.35;3.42;;;5.40;99.90;;;;;;6094946;23;20017;-79
2023/04/02 08:59:41;;;;;;;9.60;2.65;;;5.40;99.90;;;;;;6125650;23;20017;-78
2023/04/02 09:02:30;;;;;;;7.03;2.28;;;5.20;99.90;;;;;;6126886;23;20513;-79
2023/04/02 09:04:58;;;;;;;7.55;2.58;;;5.10;99.90;;;;;;6101229;23;20010;-79
2023/04/02 09:07:25;;;;;;;8.07;2.20;;;4.90;99.90;;;;;;6123060;23;20018;-80
2023/04/02 09:09:55;;;;;;;5.32;2.10;;;5.00;99.90;;;;;;6099555;23;20009;-80
2023/04/02 09:12:29;;;;;;;4.85;2.10;;;5.20;99.90;;;;;;6099632;23;20056;-79
2023/04/02 09:14:55;;;;;;;7.05;2.35;;;5.20;99.90;;;;;;6098931;23;20349;-79
2023/04/02 09:17:25;;;;;;;7.43;2.22;;;5.30;99.90;;;;;;6099305;23;20096;-79
2023/04/02 09:19:59;;;;;;;4.70;2.05;;;5.40;99.90;;;;;;6123970;23;20025;-80
2023/04/02 09:22:28;;;;;;;7.43;2.20;;;5.70;99.90;;;;;;6099235;23;20340;-80
2023/04/02 09:24:56;;;;;;;6.38;2.20;;;6.20;99.90;;;;;;6099079;23;20025;-80
2023/04/02 09:27:25;;;;;;;6.90;2.10;;;6.90;99.90;;;;;;6098766;23;20014;-80
2023/04/02 09:30:12;;;;;;;8.30;2.38;;;7.40;99.90;;;;;;6124075;23;20010;-79
2023/04/02 09:32:51;;;;;;;5.38;2.15;;;8.00;99.90;;;;;;6123759;23;20022;-79
2023/04/02 09:35:24;;;;;;;6.20;2.00;;;8.50;99.90;;;;;;6099154;23;20306;-79
2023/04/02 09:38:08;;;;;;;8.03;2.00;;;7.90;99.90;;;;;;6123486;23;20013;-79
2023/04/02 09:40:47;;;;;;;7.80;2.90;;;7.40;99.90;;;;;;6099131;23;20237;-79
2023/04/02 09:43:21;;;;;;;6.28;2.00;;;7.00;99.90;;;;;;6122692;23;20014;-79
2023/04/02 09:46:22;;;;;;;7.15;2.28;;;6.50;99.90;;;;;;6123214;23;20053;-78
2023/04/02 09:48:57;;;;;;;7.30;2.10;;;6.40;99.90;;;;;;6099106;23;20440;-79
2023/04/02 09:51:33;;;;;;;6.80;2.10;;;6.30;99.90;;;;;;6098573;23;20018;-79
2023/04/02 09:54:01;;;;;;;7.45;2.25;;;6.50;99.90;;;;;;6123123;23;20016;-78
2023/04/02 09:56:32;;;;;;;6.88;2.25;;;6.70;99.90;;;;;;6098345;23;20389;-79
2023/04/02 09:59:20;;;;;;;4.80;1.90;;;6.80;99.90;;;;;;6123247;23;20013;-79
2023/04/02 10:01:55;;;;;;;5.40;1.90;;;6.80;99.90;;;;;;6123206;23;20448;-79
2023/04/02 10:04:45;;;;;;;5.55;2.30;;;7.00;99.90;;;;;;6098630;23;20335;-80
2023/04/02 10:07:35;;;;;;;7.00;2.30;;;6.60;99.90;;;;;;6123231;23;20013;-79
2023/04/02 10:10:03;;;;;;;7.03;2.78;;;6.40;99.90;;;;;;6098626;23;20369;-81
2023/04/02 10:12:40;;;;;;;6.82;2.75;;;6.50;99.90;;;;;;6124365;23;20068;-80
2023/04/02 10:15:13;;;;;;;8.10;2.50;;;6.60;99.90;;;;;;6122926;23;20085;-79
2023/04/02 10:17:39;;;;;;;;;;;6.70;99.90;;;;;;6123993;23;20010;-80
2023/04/02 10:20:19;;;;;;;7.28;2.38;;;6.70;99.90;;;;;;6124589;23;20379;-80
2023/04/02 10:22:45;;;;;;;6.82;1.98;;;6.90;99.90;;;;;;6123334;23;20006;-80
2023/04/02 10:25:15;;;;;;;7.20;1.88;;;7.10;99.90;;;;;;6122647;23;20014;-79
2023/04/02 10:27:53;;;;;;;6.07;2.20;;;7.10;99.90;;;;;;6122893;23;20010;-80
2023/04/02 10:30:58;;;;;;;7.80;2.00;;;7.30;99.90;;;;;;6122895;23;20692;-80
2023/04/02 10:33:32;;;;;;;5.75;2.40;;;7.20;99.90;;;;;;6098788;23;20093;-79
2023/04/02 10:36:23;;;;;;;5.82;1.95;;;7.30;99.90;;;;;;6123326;23;20017;-79
2023/04/02 10:39:07;;;;;;;5.22;1.80;;;7.50;99.90;;;;;;6123871;23;20122;-79
2023/04/02 10:42:15;;;;;;;6.35;1.80;;;7.70;99.90;;;;;;6122284;23;20017;-79
2023/04/02 10:45:12;;;;;;;6.93;1.90;;;7.80;99.90;;;;;;6124932;23;20017;-79
2023/04/02 10:47:47;;;;;;;5.05;1.80;;;7.60;99.90;;;;;;6122920;23;20044;-81
2023/04/02 10:50:34;;;;;;;4.25;1.70;;;7.70;99.90;;;;;;6122796;23;20262;-79
2023/04/02 10:53:06;;;;;;;6.60;2.33;;;7.80;99.90;;;;;;6098303;23;20014;-79
2023/04/02 10:55:39;;;;;;;5.32;2.30;;;7.90;99.90;;;;;;6097402;23;20018;-81
2023/04/02 10:58:15;;;;;;;6.22;2.20;;;7.80;99.90;;;;;;6122911;23;20018;-82
2023/04/02 11:00:43;;;;;;;5.22;1.88;;;7.70;99.90;;;;;;6124452;23;20566;-79
2023/04/02 11:03:17;;;;;;;4.90;1.67;;;7.80;99.90;;;;;;6098273;23;20010;-79
2023/04/02 11:05:53;;;;;;;6.40;2.40;;;7.70;99.90;;;;;;6123268;23;20014;-79
2023/04/02 11:08:42;;;;;;;4.55;1.65;;;7.90;99.90;;;;;;6122682;23;20061;-78
2023/04/02 11:11:13;;;;;;;4.60;1.60;;;7.90;99.90;;;;;;6122987;23;20006;-80
2023/04/02 11:13:48;;;;;;;4.78;1.50;;;8.00;99.90;;;;;;6123164;23;20014;-80
2023/04/02 11:16:14;;;;;;;3.60;1.55;;;8.20;99.90;;;;;;6122573;23;20013;-80
2023/04/02 11:18:40;;;;;;;4.75;2.05;;;8.20;99.90;;;;;;6122527;23;20475;-80
2023/04/02 11:21:38;;;;;;;3.50;1.58;;;8.30;99.90;;;;;;6122468;23;20010;-80
2023/04/02 11:24:04;;;;;;;5.88;1.83;;;8.40;99.90;;;;;;6122004;23;20088;-80
2023/04/02 11:26:52;;;;;;;5.45;1.80;;;8.50;99.90;;;;;;6124528;23;20044;-80
2023/04/02 11:29:29;;;;;;;3.92;1.70;;;8.70;99.90;;;;;;6124676;23;20042;-80
2023/04/02 11:32:14;;;;;;;5.43;1.67;;;8.80;99.90;;;;;;6124326;23;20326;-78
2023/04/02 11:34:40;;;;;;;8.00;3.10;;;8.70;99.90;;;;;;6097757;23;20017;-79
2023/04/02 11:37:28;;;;;;;9.85;4.25;;;8.70;99.90;;;;;;6124241;23;20014;-79
2023/04/02 11:39:58;;;;;;;10.52;6.88;;;8.70;99.90;;;;;;6097106;23;20025;-78
2023/04/02 11:42:28;;;;;;;3.78;2.55;;;8.70;99.90;;;;;;6122073;23;20335;-78
2023/04/02 11:44:55;;;;;;;5.55;2.05;;;8.80;99.90;;;;;;6097711;23;20014;-79
2023/04/02 11:47:25;;;;;;;5.63;1.80;;;8.80;99.90;;;;;;6122038;23;20022;-78
2023/04/02 11:49:54;;;;;;;3.03;1.48;;;8.80;99.90;;;;;;6122240;23;20025;-79
2023/04/02 11:52:28;;;;;;;5.95;1.95;;;8.90;99.90;;;;;;6121395;23;20056;-79
2023/04/02 11:55:15;;;;;;;6.25;3.45;;;9.30;99.90;;;;;;6122186;23;20115;-79
2023/04/02 11:57:59;;;;;;;5.50;1.40;;;9.20;99.90;;;;;;6097320;23;20010;-79
2023/04/02 12:00:33;;;;;;;3.80;1.80;;;9.20;99.90;;;;;;6097840;23;20010;-79
2023/04/02 12:03:20;;;;;;;7.43;2.22;;;9.40;99.90;;;;;;6122587;23;20010;-80
2023/04/02 12:06:18;;;;;;;3.08;1.40;;;9.40;99.90;;;;;;6098103;23;20018;-79
2023/04/02 12:09:17;;;;;;;13.30;12.10;;;9.60;99.90;;;;;;6063952;23;20014;-81
2023/04/02 12:11:47;;;;;;;5.05;1.77;;;9.70;99.90;;;;;;6123377;23;20259;-81
2023/04/02 12:14:40;;;;;;;6.50;4.82;;;9.80;99.90;;;;;;6098102;23;20014;-80
2023/04/02 12:17:25;;;;;;;3.30;1.50;;;9.70;99.90;;;;;;6124062;23;20397;-80
2023/04/02 12:19:55;;;;;;;6.70;2.35;;;9.40;99.90;;;;;;6123969;23;20705;-79
2023/04/02 12:22:29;;;;;;;5.10;1.50;;;9.60;99.90;;;;;;6097602;23;20468;-81
2023/04/02 12:25:00;;;;;;;6.00;2.17;;;9.40;99.90;;;;;;6122831;23;20041;-81
2023/04/02 12:27:28;;;;;;;8.70;7.80;;;9.60;99.90;;;;;;6122320;23;20085;-81
2023/04/02 12:30:18;;;;;;;7.10;3.92;;;9.60;99.90;;;;;;6098032;23;20042;-80
2023/04/02 12:32:44;;;;;;;32.33;29.45;;;9.70;99.90;;;;;;6123737;23;20449;-80
2023/04/02 12:35:40;;;;;;;5.57;2.13;;;9.60;99.90;;;;;;6122960;23;20017;-80
2023/04/02 12:38:32;;;;;;;4.65;3.22;;;9.50;99.90;;;;;;6081449;23;20082;-80
2023/04/02 12:41:06;;;;;;;4.20;1.92;;;9.50;99.90;;;;;;6122358;23;20021;-80
2023/04/02 12:43:36;;;;;;;9.55;8.38;;;9.30;99.90;;;;;;6123928;23;20014;-80
2023/04/02 12:46:06;;;;;;;8.77;6.07;;;9.40;99.90;;;;;;6126207;23;20072;-81
2023/04/02 12:48:33;;;;;;;5.13;1.80;;;9.50;99.90;;;;;;6100275;23;20018;-80
2023/04/02 12:51:00;;;;;;;26.17;23.65;;;9.50;99.90;;;;;;6099386;23;20453;-80
2023/04/02 12:53:32;;;;;;;8.20;3.80;;;9.70;99.90;;;;;;6124397;23;20018;-80
2023/04/02 12:55:57;;;;;;;6.95;4.57;;;9.70;99.90;;;;;;6126083;23;20013;-79
2023/04/02 12:58:35;;;;;;;9.77;8.30;;;9.60;99.90;;;;;;6126387;23;20069;-80
2023/04/02 13:01:19;;;;;;;6.78;3.50;;;9.70;99.90;;;;;;6124409;23;20017;-81
2023/04/02 13:04:03;;;;;;;19.85;18.05;;;9.60;99.90;;;;;;6126492;23;20329;-81
2023/04/02 13:06:35;;;;;;;4.03;2.03;;;9.60;99.90;;;;;;6124028;23;20045;-82
2023/04/02 13:09:06;;;;;;;5.63;2.03;;;9.70;99.90;;;;;;6100345;23;20334;-81
2023/04/02 13:11:37;;;;;;;7.35;3.95;;;9.80;99.90;;;;;;6100413;23;20481;-83
2023/04/02 13:14:06;;;;;;;3.40;1.30;;;9.80;99.90;;;;;;6125342;23;20014;-83
2023/04/02 13:16:36;;;;;;;4.70;1.60;;;9.80;99.90;;;;;;6100263;23;20093;-81
2023/04/02 13:19:21;;;;;;;3.92;2.20;;;9.90;99.90;;;;;;6100493;23;20025;-80
2023/04/02 13:21:47;;;;;;;7.68;2.97;;;9.90;99.90;;;;;;6125025;23;20014;-79
2023/04/02 13:24:21;;;;;;;4.50;1.45;;;9.90;99.90;;;;;;6099507;23;20014;-80
2023/04/02 13:26:52;;;;;;;5.35;1.50;;;9.80;99.90;;;;;;6126012;23;20065;-79
2023/04/02 13:29:35;;;;;;;3.22;1.30;;;9.70;99.90;;;;;;6124772;23;20010;-80
2023/04/02 13:32:10;;;;;;;4.30;1.90;;;9.80;99.90;;;;;;6099927;23;20018;-80
2023/04/02 13:34:36;;;;;;;5.47;1.80;;;9.80;99.90;;;;;;6099755;23;20010;-79
2023/04/02 13:37:01;;;;;;;3.80;1.70;;;9.90;99.90;;;;;;6124267;23;20467;-79
2023/04/02 13:39:29;;;;;;;3.38;1.60;;;10.00;99.90;;;;;;6124393;23;20052;-79